sensor_id;sensor_type;location;lat;lon;timestamp;P1;durP1;ratioP1;P2;durP2;ratioP2
15679;SDS011;15488;48.114;11.532;2023-02-15T00:02:03;8.23;;;5.77;;
15679;SDS011;15488;48.114;11.532;2023-02-15T00:04:32;8.90;;;5.67;;
15679;SDS011;15488;48.114;11.532;2023-02-15T00:07:15;9.87;;;6.70;;
15679;SDS011;15488;48.114;11.532;2023-02-15T00:09:44;9.30;;;6.47;;
15679;SDS011;15488;48.114;11.532;2023-02-15T00:12:12;9.80;;;6.50;;
15679;SDS011;15488;48.114;11.532;2023-02-15T00:14:41;15.13;;;8.93;;
15679;SDS011;15488;48.114;11.532;2023-02-15T00:17:09;11.40;;;7.60;;
15679;SDS011;15488;48.114;11.532;2023-02-15T00:19:38;41.90;;;19.00;;
15679;SDS011;15488;48.114;11.532;2023-02-15T00:22:06;21.07;;;10.83;;
15679;SDS011;15488;48.114;11.532;2023-02-15T00:24:34;12.80;;;8.37;;
15679;SDS011;15488;48.114;11.532;2023-02-15T00:27:01;17.60;;;10.77;;
15679;SDS011;15488;48.114;11.532;2023-02-15T00:29:29;14.30;;;9.00;;
15679;SDS011;15488;48.114;11.532;2023-02-15T00:31:56;10.20;;;6.43;;
15679;SDS011;15488;48.114;11.532;2023-02-15T00:34:25;8.23;;;5.43;;
15679;SDS011;15488;48.114;11.532;2023-02-15T00:36:54;11.23;;;6.80;;
15679;SDS011;15488;48.114;11.532;2023-02-15T00:39:22;11.00;;;7.33;;
15679;SDS011;15488;48.114;11.532;2023-02-15T00:41:50;7.87;;;6.17;;
15679;SDS011;15488;48.114;11.532;2023-02-15T00:44:18;8.70;;;5.70;;
15679;SDS011;15488;48.114;11.532;2023-02-15T00:46:45;14.83;;;9.23;;
15679;SDS011;15488;48.114;11.532;2023-02-15T00:49:13;12.77;;;8.03;;
15679;SDS011;15488;48.114;11.532;2023-02-15T00:51:40;28.97;;;15.47;;
15679;SDS011;15488;48.114;11.532;2023-02-15T00:54:09;12.83;;;8.30;;
15679;SDS011;15488;48.114;11.532;2023-02-15T00:56:36;10.23;;;6.20;;
15679;SDS011;15488;48.114;11.532;2023-02-15T00:59:04;8.37;;;5.50;;
15679;SDS011;15488;48.114;11.532;2023-02-15T01:01:31;8.83;;;5.90;;
15679;SDS011;15488;48.114;11.532;2023-02-15T01:03:58;9.17;;;5.67;;
15679;SDS011;15488;48.114;11.532;2023-02-15T01:06:26;9.00;;;6.37;;
15679;SDS011;15488;48.114;11.532;2023-02-15T01:08:53;14.90;;;8.13;;
15679;SDS011;15488;48.114;11.532;2023-02-15T01:11:22;9.17;;;6.10;;
15679;SDS011;15488;48.114;11.532;2023-02-15T01:13:50;7.23;;;5.33;;
15679;SDS011;15488;48.114;11.532;2023-02-15T01:16:19;8.17;;;5.47;;
15679;SDS011;15488;48.114;11.532;2023-02-15T01:18:47;7.43;;;5.20;;
15679;SDS011;15488;48.114;11.532;2023-02-15T01:21:16;7.20;;;4.70;;
15679;SDS011;15488;48.114;11.532;2023-02-15T01:23:46;7.40;;;4.90;;
15679;SDS011;15488;48.114;11.532;2023-02-15T01:26:14;7.73;;;4.93;;
15679;SDS011;15488;48.114;11.532;2023-02-15T01:28:43;7.03;;;4.87;;
15679;SDS011;15488;48.114;11.532;2023-02-15T01:31:12;6.13;;;4.73;;
15679;SDS011;15488;48.114;11.532;2023-02-15T01:33:41;7.10;;;4.60;;
15679;SDS011;15488;48.114;11.532;2023-02-15T01:36:08;7.17;;;5.00;;
15679;SDS011;15488;48.114;11.532;2023-02-15T01:38:36;7.07;;;5.13;;
15679;SDS011;15488;48.114;11.532;2023-02-15T01:41:04;6.77;;;4.80;;
15679;SDS011;15488;48.114;11.532;2023-02-15T01:43:51;6.67;;;4.67;;
15679;SDS011;15488;48.114;11.532;2023-02-15T01:46:20;6.67;;;4.90;;
15679;SDS011;15488;48.114;11.532;2023-02-15T01:48:52;7.27;;;5.00;;
15679;SDS011;15488;48.114;11.532;2023-02-15T01:51:23;6.40;;;4.50;;
15679;SDS011;15488;48.114;11.532;2023-02-15T01:53:56;6.07;;;4.40;;
15679;SDS011;15488;48.114;11.532;2023-02-15T01:56:28;7.07;;;4.57;;
15679;SDS011;15488;48.114;11.532;2023-02-15T01:59:02;6.50;;;4.50;;
15679;SDS011;15488;48.114;11.532;2023-02-15T02:01:33;6.77;;;4.60;;
15679;SDS011;15488;48.114;11.532;2023-02-15T02:04:04;6.87;;;4.47;;
15679;SDS011;15488;48.114;11.532;2023-02-15T02:06:41;6.10;;;4.70;;
15679;SDS011;15488;48.114;11.532;2023-02-15T02:09:10;5.93;;;4.37;;
15679;SDS011;15488;48.114;11.532;2023-02-15T02:11:37;5.97;;;4.37;;
15679;SDS011;15488;48.114;11.532;2023-02-15T02:14:07;6.00;;;4.23;;
15679;SDS011;15488;48.114;11.532;2023-02-15T02:16:37;5.67;;;4.40;;
15679;SDS011;15488;48.114;11.532;2023-02-15T02:22:26;6.50;;;4.53;;
15679;SDS011;15488;48.114;11.532;2023-02-15T02:28:48;4.53;;;3.60;;
15679;SDS011;15488;48.114;11.532;2023-02-15T02:31:42;5.43;;;4.00;;
15679;SDS011;15488;48.114;11.532;2023-02-15T02:34:24;6.57;;;4.70;;
15679;SDS011;15488;48.114;11.532;2023-02-15T02:36:55;6.13;;;4.37;;
15679;SDS011;15488;48.114;11.532;2023-02-15T02:39:31;7.67;;;4.70;;
15679;SDS011;15488;48.114;11.532;2023-02-15T02:42:05;5.47;;;4.00;;
15679;SDS011;15488;48.114;11.532;2023-02-15T02:44:40;6.27;;;4.47;;
15679;SDS011;15488;48.114;11.532;2023-02-15T02:47:11;6.80;;;4.50;;
15679;SDS011;15488;48.114;11.532;2023-02-15T02:49:43;6.00;;;4.47;;
15679;SDS011;15488;48.114;11.532;2023-02-15T02:55:00;6.00;;;4.40;;
15679;SDS011;15488;48.114;11.532;2023-02-15T02:57:29;5.83;;;3.97;;
15679;SDS011;15488;48.114;11.532;2023-02-15T02:59:58;5.27;;;3.97;;
15679;SDS011;15488;48.114;11.532;2023-02-15T03:02:34;5.73;;;4.30;;
15679;SDS011;15488;48.114;11.532;2023-02-15T03:05:08;5.67;;;4.27;;
15679;SDS011;15488;48.114;11.532;2023-02-15T03:07:40;5.80;;;4.20;;
15679;SDS011;15488;48.114;11.532;2023-02-15T03:10:12;5.33;;;4.20;;
15679;SDS011;15488;48.114;11.532;2023-02-15T03:12:39;5.67;;;4.20;;
15679;SDS011;15488;48.114;11.532;2023-02-15T03:15:08;6.17;;;4.40;;
15679;SDS011;15488;48.114;11.532;2023-02-15T03:17:42;5.30;;;4.17;;
15679;SDS011;15488;48.114;11.532;2023-02-15T03:20:14;6.20;;;4.30;;
15679;SDS011;15488;48.114;11.532;2023-02-15T03:22:47;5.77;;;4.53;;
15679;SDS011;15488;48.114;11.532;2023-02-15T03:25:19;6.17;;;4.40;;
15679;SDS011;15488;48.114;11.532;2023-02-15T03:27:51;6.20;;;4.50;;
15679;SDS011;15488;48.114;11.532;2023-02-15T03:30:21;6.27;;;4.57;;
15679;SDS011;15488;48.114;11.532;2023-02-15T03:32:50;6.57;;;4.47;;
15679;SDS011;15488;48.114;11.532;2023-02-15T03:35:21;6.13;;;4.60;;
15679;SDS011;15488;48.114;11.532;2023-02-15T03:37:51;7.03;;;4.60;;
15679;SDS011;15488;48.114;11.532;2023-02-15T03:40:23;6.93;;;4.90;;
15679;SDS011;15488;48.114;11.532;2023-02-15T03:43:12;6.47;;;4.53;;
15679;SDS011;15488;48.114;11.532;2023-02-15T03:45:44;6.40;;;4.30;;
15679;SDS011;15488;48.114;11.532;2023-02-15T03:48:21;6.77;;;4.57;;
15679;SDS011;15488;48.114;11.532;2023-02-15T03:50:54;6.33;;;4.63;;
15679;SDS011;15488;48.114;11.532;2023-02-15T03:53:44;6.70;;;4.53;;
15679;SDS011;15488;48.114;11.532;2023-02-15T03:56:14;6.87;;;4.53;;
15679;SDS011;15488;48.114;11.532;2023-02-15T03:58:41;5.73;;;4.50;;
15679;SDS011;15488;48.114;11.532;2023-02-15T04:01:27;5.90;;;4.53;;
15679;SDS011;15488;48.114;11.532;2023-02-15T04:04:23;6.30;;;4.60;;
15679;SDS011;15488;48.114;11.532;2023-02-15T04:06:59;6.50;;;4.40;;
15679;SDS011;15488;48.114;11.532;2023-02-15T04:09:27;6.13;;;4.40;;
15679;SDS011;15488;48.114;11.532;2023-02-15T04:12:11;6.27;;;4.60;;
15679;SDS011;15488;48.114;11.532;2023-02-15T04:14:39;6.67;;;4.60;;
15679;SDS011;15488;48.114;11.532;2023-02-15T04:17:24;6.10;;;4.20;;
15679;SDS011;15488;48.114;11.532;2023-02-15T04:19:51;6.07;;;4.50;;
15679;SDS011;15488;48.114;11.532;2023-02-15T04:22:37;6.27;;;4.30;;
15679;SDS011;15488;48.114;11.532;2023-02-15T04:25:22;7.20;;;4.70;;
15679;SDS011;15488;48.114;11.532;2023-02-15T04:27:50;7.50;;;4.63;;
15679;SDS011;15488;48.114;11.532;2023-02-15T04:30:20;7.00;;;4.60;;
15679;SDS011;15488;48.114;11.532;2023-02-15T04:32:49;6.27;;;4.67;;
15679;SDS011;15488;48.114;11.532;2023-02-15T04:35:17;5.87;;;4.43;;
15679;SDS011;15488;48.114;11.532;2023-02-15T04:37:46;6.17;;;4.60;;
15679;SDS011;15488;48.114;11.532;2023-02-15T04:40:14;5.50;;;4.30;;
15679;SDS011;15488;48.114;11.532;2023-02-15T04:42:43;6.30;;;4.37;;
15679;SDS011;15488;48.114;11.532;2023-02-15T04:45:13;6.30;;;4.37;;
15679;SDS011;15488;48.114;11.532;2023-02-15T04:47:40;5.20;;;4.27;;
15679;SDS011;15488;48.114;11.532;2023-02-15T04:50:08;6.70;;;4.60;;
15679;SDS011;15488;48.114;11.532;2023-02-15T04:52:36;6.47;;;4.60;;
15679;SDS011;15488;48.114;11.532;2023-02-15T04:55:06;8.50;;;5.00;;
15679;SDS011;15488;48.114;11.532;2023-02-15T04:57:33;6.37;;;4.77;;
15679;SDS011;15488;48.114;11.532;2023-02-15T05:00:01;6.90;;;4.93;;
15679;SDS011;15488;48.114;11.532;2023-02-15T05:02:28;7.57;;;5.10;;
15679;SDS011;15488;48.114;11.532;2023-02-15T05:04:56;6.37;;;4.60;;
15679;SDS011;15488;48.114;11.532;2023-02-15T05:07:23;7.50;;;5.30;;
15679;SDS011;15488;48.114;11.532;2023-02-15T05:09:51;7.20;;;5.03;;
15679;SDS011;15488;48.114;11.532;2023-02-15T05:12:19;6.73;;;4.70;;
15679;SDS011;15488;48.114;11.532;2023-02-15T05:14:47;6.43;;;4.53;;
15679;SDS011;15488;48.114;11.532;2023-02-15T05:17:14;6.17;;;4.43;;
15679;SDS011;15488;48.114;11.532;2023-02-15T05:19:42;6.27;;;4.67;;
15679;SDS011;15488;48.114;11.532;2023-02-15T05:22:09;6.37;;;4.83;;
15679;SDS011;15488;48.114;11.532;2023-02-15T05:24:36;6.60;;;4.80;;
15679;SDS011;15488;48.114;11.532;2023-02-15T05:27:22;5.83;;;4.30;;
15679;SDS011;15488;48.114;11.532;2023-02-15T05:30:08;6.80;;;4.70;;
15679;SDS011;15488;48.114;11.532;2023-02-15T05:32:36;6.77;;;4.90;;
15679;SDS011;15488;48.114;11.532;2023-02-15T05:35:04;6.87;;;5.10;;
15679;SDS011;15488;48.114;11.532;2023-02-15T05:37:32;7.83;;;5.13;;
15679;SDS011;15488;48.114;11.532;2023-02-15T05:40:00;7.10;;;4.90;;
15679;SDS011;15488;48.114;11.532;2023-02-15T05:42:28;7.27;;;5.20;;
15679;SDS011;15488;48.114;11.532;2023-02-15T05:44:56;6.20;;;4.70;;
15679;SDS011;15488;48.114;11.532;2023-02-15T05:47:23;7.07;;;5.40;;
15679;SDS011;15488;48.114;11.532;2023-02-15T05:49:51;8.60;;;5.30;;
15679;SDS011;15488;48.114;11.532;2023-02-15T05:52:18;6.50;;;4.63;;
15679;SDS011;15488;48.114;11.532;2023-02-15T05:54:46;7.67;;;5.47;;
15679;SDS011;15488;48.114;11.532;2023-02-15T05:57:14;6.90;;;5.00;;
15679;SDS011;15488;48.114;11.532;2023-02-15T05:59:42;8.03;;;5.40;;
15679;SDS011;15488;48.114;11.532;2023-02-15T06:02:10;12.73;;;6.30;;
15679;SDS011;15488;48.114;11.532;2023-02-15T06:04:38;8.30;;;5.27;;
15679;SDS011;15488;48.114;11.532;2023-02-15T06:07:05;8.93;;;5.60;;
15679;SDS011;15488;48.114;11.532;2023-02-15T06:09:36;8.13;;;5.13;;
15679;SDS011;15488;48.114;11.532;2023-02-15T06:12:03;7.33;;;5.47;;
15679;SDS011;15488;48.114;11.532;2023-02-15T06:14:31;8.07;;;5.17;;
15679;SDS011;15488;48.114;11.532;2023-02-15T06:17:00;8.07;;;5.37;;
15679;SDS011;15488;48.114;11.532;2023-02-15T06:19:27;7.90;;;5.43;;
15679;SDS011;15488;48.114;11.532;2023-02-15T06:21:55;7.80;;;5.40;;
15679;SDS011;15488;48.114;11.532;2023-02-15T06:24:23;7.77;;;5.37;;
15679;SDS011;15488;48.114;11.532;2023-02-15T06:26:50;7.77;;;5.17;;
15679;SDS011;15488;48.114;11.532;2023-02-15T06:29:18;7.60;;;5.20;;
15679;SDS011;15488;48.114;11.532;2023-02-15T06:31:45;8.30;;;5.53;;
15679;SDS011;15488;48.114;11.532;2023-02-15T06:34:14;8.47;;;5.43;;
15679;SDS011;15488;48.114;11.532;2023-02-15T06:36:41;8.00;;;5.63;;
15679;SDS011;15488;48.114;11.532;2023-02-15T06:39:09;9.83;;;5.70;;
15679;SDS011;15488;48.114;11.532;2023-02-15T06:41:36;8.83;;;5.87;;
15679;SDS011;15488;48.114;11.532;2023-02-15T06:44:04;8.40;;;5.40;;
15679;SDS011;15488;48.114;11.532;2023-02-15T06:46:32;7.70;;;5.67;;
15679;SDS011;15488;48.114;11.532;2023-02-15T06:48:59;7.60;;;5.20;;
15679;SDS011;15488;48.114;11.532;2023-02-15T06:51:28;7.23;;;5.33;;
15679;SDS011;15488;48.114;11.532;2023-02-15T06:53:56;7.80;;;4.93;;
15679;SDS011;15488;48.114;11.532;2023-02-15T06:56:23;8.70;;;5.60;;
15679;SDS011;15488;48.114;11.532;2023-02-15T06:58:50;7.87;;;5.13;;
15679;SDS011;15488;48.114;11.532;2023-02-15T07:01:18;7.90;;;5.30;;
15679;SDS011;15488;48.114;11.532;2023-02-15T07:03:48;8.47;;;5.73;;
15679;SDS011;15488;48.114;11.532;2023-02-15T07:06:15;8.90;;;5.20;;
15679;SDS011;15488;48.114;11.532;2023-02-15T07:08:44;8.80;;;5.60;;
15679;SDS011;15488;48.114;11.532;2023-02-15T07:11:11;8.27;;;5.50;;
15679;SDS011;15488;48.114;11.532;2023-02-15T07:13:56;7.70;;;5.27;;
15679;SDS011;15488;48.114;11.532;2023-02-15T07:16:24;9.50;;;5.60;;
15679;SDS011;15488;48.114;11.532;2023-02-15T07:18:51;8.23;;;5.33;;
15679;SDS011;15488;48.114;11.532;2023-02-15T07:21:19;8.50;;;5.57;;
15679;SDS011;15488;48.114;11.532;2023-02-15T07:23:47;9.03;;;5.90;;
15679;SDS011;15488;48.114;11.532;2023-02-15T07:26:15;7.63;;;5.30;;
15679;SDS011;15488;48.114;11.532;2023-02-15T07:28:42;9.80;;;5.60;;
15679;SDS011;15488;48.114;11.532;2023-02-15T07:31:10;8.20;;;5.63;;
15679;SDS011;15488;48.114;11.532;2023-02-15T07:33:37;8.33;;;5.30;;
15679;SDS011;15488;48.114;11.532;2023-02-15T07:36:05;8.03;;;6.00;;
15679;SDS011;15488;48.114;11.532;2023-02-15T07:38:35;9.50;;;6.07;;
15679;SDS011;15488;48.114;11.532;2023-02-15T07:41:06;8.87;;;5.90;;
15679;SDS011;15488;48.114;11.532;2023-02-15T07:43:35;8.13;;;5.67;;
15679;SDS011;15488;48.114;11.532;2023-02-15T07:46:04;9.33;;;6.10;;
15679;SDS011;15488;48.114;11.532;2023-02-15T07:48:33;9.07;;;5.83;;
15679;SDS011;15488;48.114;11.532;2023-02-15T07:51:02;8.23;;;6.03;;
15679;SDS011;15488;48.114;11.532;2023-02-15T07:53:31;10.43;;;6.57;;
15679;SDS011;15488;48.114;11.532;2023-02-15T07:55:59;8.67;;;6.00;;
15679;SDS011;15488;48.114;11.532;2023-02-15T07:58:28;10.00;;;6.13;;
15679;SDS011;15488;48.114;11.532;2023-02-15T08:01:09;8.97;;;6.10;;
15679;SDS011;15488;48.114;11.532;2023-02-15T08:03:37;9.70;;;6.37;;
15679;SDS011;15488;48.114;11.532;2023-02-15T08:06:04;9.57;;;6.63;;
15679;SDS011;15488;48.114;11.532;2023-02-15T08:08:33;9.70;;;6.40;;
15679;SDS011;15488;48.114;11.532;2023-02-15T08:11:01;9.57;;;6.10;;
15679;SDS011;15488;48.114;11.532;2023-02-15T08:13:49;8.40;;;6.03;;
15679;SDS011;15488;48.114;11.532;2023-02-15T08:16:22;9.53;;;6.20;;
15679;SDS011;15488;48.114;11.532;2023-02-15T08:18:50;8.80;;;6.17;;
15679;SDS011;15488;48.114;11.532;2023-02-15T08:21:18;8.87;;;5.67;;
15679;SDS011;15488;48.114;11.532;2023-02-15T08:23:46;10.07;;;6.40;;
15679;SDS011;15488;48.114;11.532;2023-02-15T08:26:13;10.70;;;6.50;;
15679;SDS011;15488;48.114;11.532;2023-02-15T08:28:42;10.90;;;7.07;;
15679;SDS011;15488;48.114;11.532;2023-02-15T08:31:11;9.80;;;6.60;;
15679;SDS011;15488;48.114;11.532;2023-02-15T08:33:40;9.27;;;6.27;;
15679;SDS011;15488;48.114;11.532;2023-02-15T08:36:09;8.53;;;5.57;;
15679;SDS011;15488;48.114;11.532;2023-02-15T08:38:38;10.23;;;6.50;;
15679;SDS011;15488;48.114;11.532;2023-02-15T08:41:10;7.83;;;5.73;;
15679;SDS011;15488;48.114;11.532;2023-02-15T08:43:39;8.90;;;5.77;;
15679;SDS011;15488;48.114;11.532;2023-02-15T08:46:07;9.43;;;6.23;;
15679;SDS011;15488;48.114;11.532;2023-02-15T08:48:37;10.60;;;6.50;;
15679;SDS011;15488;48.114;11.532;2023-02-15T08:51:06;8.67;;;5.93;;
15679;SDS011;15488;48.114;11.532;2023-02-15T08:53:35;9.07;;;5.83;;
15679;SDS011;15488;48.114;11.532;2023-02-15T08:56:04;10.63;;;6.60;;
15679;SDS011;15488;48.114;11.532;2023-02-15T08:58:33;9.80;;;6.13;;
15679;SDS011;15488;48.114;11.532;2023-02-15T09:01:08;9.63;;;6.13;;
15679;SDS011;15488;48.114;11.532;2023-02-15T09:03:40;9.30;;;6.10;;
15679;SDS011;15488;48.114;11.532;2023-02-15T09:06:08;9.47;;;6.17;;
15679;SDS011;15488;48.114;11.532;2023-02-15T09:08:36;9.03;;;6.30;;
15679;SDS011;15488;48.114;11.532;2023-02-15T09:11:05;10.23;;;6.73;;
15679;SDS011;15488;48.114;11.532;2023-02-15T09:13:34;12.40;;;6.13;;
15679;SDS011;15488;48.114;11.532;2023-02-15T09:16:02;9.43;;;6.10;;
15679;SDS011;15488;48.114;11.532;2023-02-15T09:18:33;9.33;;;6.30;;
15679;SDS011;15488;48.114;11.532;2023-02-15T09:21:08;11.43;;;6.13;;
15679;SDS011;15488;48.114;11.532;2023-02-15T09:23:38;9.60;;;6.60;;
15679;SDS011;15488;48.114;11.532;2023-02-15T09:26:07;10.90;;;6.50;;
15679;SDS011;15488;48.114;11.532;2023-02-15T09:28:36;9.57;;;6.50;;
15679;SDS011;15488;48.114;11.532;2023-02-15T09:31:07;10.40;;;6.50;;
15679;SDS011;15488;48.114;11.532;2023-02-15T09:33:37;9.93;;;6.70;;
15679;SDS011;15488;48.114;11.532;2023-02-15T09:36:13;9.57;;;6.83;;
15679;SDS011;15488;48.114;11.532;2023-02-15T09:38:42;10.27;;;6.60;;
15679;SDS011;15488;48.114;11.532;2023-02-15T09:41:21;12.67;;;7.17;;
15679;SDS011;15488;48.114;11.532;2023-02-15T09:44:05;11.17;;;6.90;;
15679;SDS011;15488;48.114;11.532;2023-02-15T09:49:51;13.67;;;7.00;;
15679;SDS011;15488;48.114;11.532;2023-02-15T09:52:31;9.83;;;6.83;;
15679;SDS011;15488;48.114;11.532;2023-02-15T09:55:10;11.87;;;7.10;;
15679;SDS011;15488;48.114;11.532;2023-02-15T09:58:01;11.47;;;6.90;;
15679;SDS011;15488;48.114;11.532;2023-02-15T10:00:36;11.57;;;6.90;;
15679;SDS011;15488;48.114;11.532;2023-02-15T10:03:16;10.27;;;7.07;;
15679;SDS011;15488;48.114;11.532;2023-02-15T10:05:58;10.07;;;6.43;;
15679;SDS011;15488;48.114;11.532;2023-02-15T10:08:49;10.60;;;6.60;;
15679;SDS011;15488;48.114;11.532;2023-02-15T10:11:26;11.57;;;6.53;;
15679;SDS011;15488;48.114;11.532;2023-02-15T10:14:12;8.80;;;6.83;;
15679;SDS011;15488;48.114;11.532;2023-02-15T10:16:49;10.10;;;6.23;;
15679;SDS011;15488;48.114;11.532;2023-02-15T10:19:28;9.70;;;6.67;;
15679;SDS011;15488;48.114;11.532;2023-02-15T10:22:05;10.17;;;6.07;;
15679;SDS011;15488;48.114;11.532;2023-02-15T10:27:38;11.63;;;6.87;;
15679;SDS011;15488;48.114;11.532;2023-02-15T10:30:11;10.00;;;6.77;;
15679;SDS011;15488;48.114;11.532;2023-02-15T10:32:40;8.80;;;6.73;;
15679;SDS011;15488;48.114;11.532;2023-02-15T10:35:20;10.67;;;6.37;;
15679;SDS011;15488;48.114;11.532;2023-02-15T10:37:58;9.73;;;6.10;;
15679;SDS011;15488;48.114;11.532;2023-02-15T10:40:36;10.80;;;7.33;;
15679;SDS011;15488;48.114;11.532;2023-02-15T10:43:17;12.60;;;7.60;;
15679;SDS011;15488;48.114;11.532;2023-02-15T10:45:58;10.80;;;6.83;;
15679;SDS011;15488;48.114;11.532;2023-02-15T10:48:37;9.90;;;6.93;;
15679;SDS011;15488;48.114;11.532;2023-02-15T10:51:18;10.10;;;6.13;;
15679;SDS011;15488;48.114;11.532;2023-02-15T10:53:55;11.87;;;6.53;;
15679;SDS011;15488;48.114;11.532;2023-02-15T10:56:35;10.33;;;6.30;;
15679;SDS011;15488;48.114;11.532;2023-02-15T10:59:19;10.60;;;6.60;;
15679;SDS011;15488;48.114;11.532;2023-02-15T11:01:54;11.20;;;6.67;;
15679;SDS011;15488;48.114;11.532;2023-02-15T11:04:39;11.10;;;7.17;;
15679;SDS011;15488;48.114;11.532;2023-02-15T11:07:15;11.47;;;7.70;;
15679;SDS011;15488;48.114;11.532;2023-02-15T11:09:47;10.63;;;6.90;;
15679;SDS011;15488;48.114;11.532;2023-02-15T11:12:20;11.60;;;7.80;;
15679;SDS011;15488;48.114;11.532;2023-02-15T11:14:52;13.03;;;7.50;;
15679;SDS011;15488;48.114;11.532;2023-02-15T11:17:25;16.90;;;8.43;;
15679;SDS011;15488;48.114;11.532;2023-02-15T11:20:02;16.07;;;8.83;;
15679;SDS011;15488;48.114;11.532;2023-02-15T11:22:35;16.40;;;7.70;;
15679;SDS011;15488;48.114;11.532;2023-02-15T11:25:05;12.43;;;7.73;;
15679;SDS011;15488;48.114;11.532;2023-02-15T11:27:44;12.30;;;8.23;;
15679;SDS011;15488;48.114;11.532;2023-02-15T11:30:15;13.87;;;8.43;;
15679;SDS011;15488;48.114;11.532;2023-02-15T11:32:45;15.13;;;8.50;;
15679;SDS011;15488;48.114;11.532;2023-02-15T11:35:18;14.63;;;8.77;;
15679;SDS011;15488;48.114;11.532;2023-02-15T11:37:51;13.77;;;8.70;;
15679;SDS011;15488;48.114;11.532;2023-02-15T11:40:24;14.27;;;9.07;;
15679;SDS011;15488;48.114;11.532;2023-02-15T11:42:58;12.13;;;8.00;;
15679;SDS011;15488;48.114;11.532;2023-02-15T11:45:32;13.43;;;8.37;;
15679;SDS011;15488;48.114;11.532;2023-02-15T11:48:00;13.23;;;8.97;;
15679;SDS011;15488;48.114;11.532;2023-02-15T11:50:35;14.00;;;9.77;;
15679;SDS011;15488;48.114;11.532;2023-02-15T11:53:04;15.47;;;9.23;;
15679;SDS011;15488;48.114;11.532;2023-02-15T11:55:39;16.47;;;9.73;;
15679;SDS011;15488;48.114;11.532;2023-02-15T11:58:14;14.53;;;9.47;;
15679;SDS011;15488;48.114;11.532;2023-02-15T12:00:50;16.50;;;9.57;;
15679;SDS011;15488;48.114;11.532;2023-02-15T12:03:21;17.93;;;9.73;;
15679;SDS011;15488;48.114;11.532;2023-02-15T12:05:56;16.27;;;10.57;;
15679;SDS011;15488;48.114;11.532;2023-02-15T12:08:28;17.43;;;11.53;;
15679;SDS011;15488;48.114;11.532;2023-02-15T12:11:05;21.60;;;12.00;;
15679;SDS011;15488;48.114;11.532;2023-02-15T12:13:45;19.33;;;12.23;;
15679;SDS011;15488;48.114;11.532;2023-02-15T12:16:21;21.80;;;13.67;;
15679;SDS011;15488;48.114;11.532;2023-02-15T12:18:49;19.40;;;12.60;;
15679;SDS011;15488;48.114;11.532;2023-02-15T12:21:25;22.47;;;13.50;;
15679;SDS011;15488;48.114;11.532;2023-02-15T12:23:56;19.57;;;13.33;;
15679;SDS011;15488;48.114;11.532;2023-02-15T12:26:27;20.90;;;13.10;;
15679;SDS011;15488;48.114;11.532;2023-02-15T12:28:58;21.30;;;14.03;;
15679;SDS011;15488;48.114;11.532;2023-02-15T12:31:28;21.27;;;13.80;;
15679;SDS011;15488;48.114;11.532;2023-02-15T12:33:59;20.53;;;14.13;;
15679;SDS011;15488;48.114;11.532;2023-02-15T12:36:31;19.80;;;13.93;;
15679;SDS011;15488;48.114;11.532;2023-02-15T12:39:20;21.53;;;13.10;;
15679;SDS011;15488;48.114;11.532;2023-02-15T12:41:57;19.73;;;13.27;;
15679;SDS011;15488;48.114;11.532;2023-02-15T12:44:30;17.50;;;11.93;;
15679;SDS011;15488;48.114;11.532;2023-02-15T12:46:59;19.07;;;12.53;;
15679;SDS011;15488;48.114;11.532;2023-02-15T12:49:29;18.40;;;12.73;;
15679;SDS011;15488;48.114;11.532;2023-02-15T12:51:58;19.77;;;12.87;;
15679;SDS011;15488;48.114;11.532;2023-02-15T12:54:37;16.70;;;12.67;;
15679;SDS011;15488;48.114;11.532;2023-02-15T12:57:17;17.83;;;12.23;;
15679;SDS011;15488;48.114;11.532;2023-02-15T12:59:52;19.87;;;12.40;;
15679;SDS011;15488;48.114;11.532;2023-02-15T13:02:23;17.50;;;12.03;;
15679;SDS011;15488;48.114;11.532;2023-02-15T13:04:56;21.00;;;13.33;;
15679;SDS011;15488;48.114;11.532;2023-02-15T13:07:31;17.53;;;12.57;;
15679;SDS011;15488;48.114;11.532;2023-02-15T13:09:59;17.43;;;12.53;;
15679;SDS011;15488;48.114;11.532;2023-02-15T13:12:27;19.53;;;12.20;;
15679;SDS011;15488;48.114;11.532;2023-02-15T13:14:58;18.30;;;12.20;;
15679;SDS011;15488;48.114;11.532;2023-02-15T13:17:28;21.83;;;13.63;;
15679;SDS011;15488;48.114;11.532;2023-02-15T13:20:00;18.27;;;12.57;;
15679;SDS011;15488;48.114;11.532;2023-02-15T13:22:33;19.67;;;13.37;;
15679;SDS011;15488;48.114;11.532;2023-02-15T13:25:09;19.53;;;13.43;;
15679;SDS011;15488;48.114;11.532;2023-02-15T13:27:41;18.73;;;12.47;;
15679;SDS011;15488;48.114;11.532;2023-02-15T13:32:58;16.17;;;11.43;;
15679;SDS011;15488;48.114;11.532;2023-02-15T13:35:31;16.20;;;11.67;;
15679;SDS011;15488;48.114;11.532;2023-02-15T13:38:15;16.33;;;11.87;;
15679;SDS011;15488;48.114;11.532;2023-02-15T13:40:51;16.07;;;11.50;;
15679;SDS011;15488;48.114;11.532;2023-02-15T13:43:33;16.03;;;11.97;;
15679;SDS011;15488;48.114;11.532;2023-02-15T13:46:13;15.60;;;11.77;;
15679;SDS011;15488;48.114;11.532;2023-02-15T13:48:49;15.53;;;11.30;;
15679;SDS011;15488;48.114;11.532;2023-02-15T13:51:27;16.23;;;11.87;;
15679;SDS011;15488;48.114;11.532;2023-02-15T13:54:09;14.17;;;10.93;;
15679;SDS011;15488;48.114;11.532;2023-02-15T13:57:00;17.63;;;11.53;;
15679;SDS011;15488;48.114;11.532;2023-02-15T13:59:44;13.93;;;11.13;;
15679;SDS011;15488;48.114;11.532;2023-02-15T14:02:30;16.73;;;11.07;;
15679;SDS011;15488;48.114;11.532;2023-02-15T14:07:58;13.40;;;10.17;;
15679;SDS011;15488;48.114;11.532;2023-02-15T14:10:38;14.97;;;10.63;;
15679;SDS011;15488;48.114;11.532;2023-02-15T14:16:24;14.20;;;10.10;;
15679;SDS011;15488;48.114;11.532;2023-02-15T14:19:03;12.93;;;10.83;;
15679;SDS011;15488;48.114;11.532;2023-02-15T14:21:41;12.17;;;9.63;;
15679;SDS011;15488;48.114;11.532;2023-02-15T14:24:17;14.73;;;9.93;;
15679;SDS011;15488;48.114;11.532;2023-02-15T14:26:52;11.37;;;10.17;;
15679;SDS011;15488;48.114;11.532;2023-02-15T14:29:35;12.43;;;10.93;;
15679;SDS011;15488;48.114;11.532;2023-02-15T14:32:13;12.43;;;10.47;;
15679;SDS011;15488;48.114;11.532;2023-02-15T14:34:48;15.33;;;11.30;;
15679;SDS011;15488;48.114;11.532;2023-02-15T14:37:19;13.30;;;11.37;;
15679;SDS011;15488;48.114;11.532;2023-02-15T14:39:55;13.07;;;10.67;;
15679;SDS011;15488;48.114;11.532;2023-02-15T14:42:47;12.73;;;10.20;;
15679;SDS011;15488;48.114;11.532;2023-02-15T14:45:22;15.80;;;11.07;;
15679;SDS011;15488;48.114;11.532;2023-02-15T14:47:56;12.37;;;11.07;;
15679;SDS011;15488;48.114;11.532;2023-02-15T14:50:45;24.53;;;17.70;;
15679;SDS011;15488;48.114;11.532;2023-02-15T14:53:22;12.30;;;10.43;;
15679;SDS011;15488;48.114;11.532;2023-02-15T14:56:05;12.97;;;10.63;;
15679;SDS011;15488;48.114;11.532;2023-02-15T14:58:54;11.37;;;9.77;;
15679;SDS011;15488;48.114;11.532;2023-02-15T15:01:37;13.87;;;9.93;;
15679;SDS011;15488;48.114;11.532;2023-02-15T15:04:05;10.73;;;9.63;;
15679;SDS011;15488;48.114;11.532;2023-02-15T15:06:37;13.43;;;9.47;;
15679;SDS011;15488;48.114;11.532;2023-02-15T15:09:11;13.20;;;10.17;;
15679;SDS011;15488;48.114;11.532;2023-02-15T15:11:46;11.73;;;9.83;;
15679;SDS011;15488;48.114;11.532;2023-02-15T15:17:03;12.80;;;10.37;;
15679;SDS011;15488;48.114;11.532;2023-02-15T15:22:39;12.90;;;10.43;;
15679;SDS011;15488;48.114;11.532;2023-02-15T15:25:09;12.50;;;9.67;;
15679;SDS011;15488;48.114;11.532;2023-02-15T15:27:39;13.23;;;10.37;;